Hoppa till innehåll

METAR väder och rapporter - EHAM

Nedan listas information från vald flygplats. Andra METARs finns längre ned på sidan. Kontakta oss om någon saknas eller skriv in egen ICAO-kod.

Coded METAR: 2024/02/26 17:25 EHAM 261725Z 03016KT 350V060 9999 SCT016 05/02 Q1011 NOSIG

Weather Report @ EHAM

Issued: 26th Feb 2024 at 18:25 CET

Wind: moderate breeze from North-Northeast (030 degrees) at 16 knots (18 mph, 30 kph, 8 mps, Force 4)
Wind: direction varying between from the North (350 degrees) and from East-North East (060 degrees)
Visibility: 10km or more
Cloud: scattered at 1600 feet
Temperature: 41F / 5C
Dewpoint: 36F / 2C
Humidity: 81%
Pressure: 1011 hPa
Weather: no significant change expected

Coded TAF: 2024/02/26 18:27 TAF TAF EHAM 261652Z 2618/2724 03015KT 9999 FEW018 BECMG 2700/2703 03009KT BECMG 2710/2713 30007KT BECMG 2718/2721 18005KT

Weather Forecast @ EHAM

Issued: 26th Feb 2024 at 19:27 CET

Valid : 26th Feb 19:00 until 27th Feb 01:00 CET

19:00 CET
Wind: moderate breeze from North-Northeast (030 degrees) at 15 knots (17 mph, 28 kph, 8 mps, Force 4)
Visibility: 10km or more
Cloud: a few clouds at 1800 feet

01:00 CET to 04:00 CET
becoming:

Wind: gentle breeze from North-Northeast (030 degrees) at 9 knots (10 mph, 17 kph, 5 mps, Force 3)

11:00 CET to 14:00 CET
becoming:

Wind: gentle breeze from West-Northwest (300 degrees) at 7 knots (8 mph, 13 kph, 4 mps, Force 3)

19:00 CET to 22:00 CET
becoming:

Wind: light breeze from the South (180 degrees) at 5 knots (6 mph, 9 kph, 3 mps, Force 2)

Internet delivery of weather data is not secure or reliable enough for operational purposes.

NEVER RELY ON THE OUTPUT OF THIS SCRIPT TO MAKE DECISIONS ABOUT ANYTHING IN WHICH THE WEATHER FORECAST AND ITS INTERPRETATION COULD BE AN ISSUE OF SAFETY.

Andra intressanta METARs

Klicka på önskad rubrik nedan för att visa nuvarande väder för den platsen.

Avstånd från stationen: NO 27kmESGG - Göteborg (Landvetter)
Uppdaterad: 2024-02-26 18:50
 Vind från NNO
Vind: NNO 13 km/h
Temperatur: 1°C
Vindavkylning: -3°C
Daggpunkt: 1°C
Luftfuktighet: 100%
Barometer: 1014 hPa
Summering: Dimmigt
Moln: Genommulet
Sikt: 5 km
Molninformation: Genommulet 91 m
2024/02/26 17:50 ESGG 261750Z 02007KT 5000 BR OVC003 01/01 Q1014
Dimmigt, Genommulet
Dimmigt
Genommulet
  Visa detaljer för Göteborg (Landvetter)
Avstånd från stationen: N 28kmESGP - Göteborg (Säve)
Uppdaterad: 2024-02-26 18:50
 Vind från NNO
Vind: NNO 11 km/h
Temperatur: 3°C
Vindavkylning: 0°C
Daggpunkt: 1°C
Luftfuktighet: 87%
Barometer: 1015 hPa
Moln: Genommulet
Sikt: 10 km
Molninformation: Genommulet 274 m
2024/02/26 17:50 ESGP 261750Z 03006KT 360V060 9999 OVC009 03/01 Q1015
Genommulet
Genommulet
  Visa detaljer för Göteborg (Säve)
Avstånd från stationen: NO 419kmESSA - Stockholm (Arlanda)
Uppdaterad: 2024-02-26 18:50
 Vind från NO
Vind: NO 6 km/h
Temperatur: 2°C
Daggpunkt: 2°C
Luftfuktighet: 100%
Barometer: 1013 hPa
Moln: Övervägande molnigt
Sikt: 10 km
Molninformation: Delvis molnigt 122 m
Övervägande molnigt 183 m
2024/02/26 17:50 ESSA 261750Z 04003KT 360V070 9999 SCT004 BKN006 02/02 Q1013 TEMPO BKN005
Övervägande molnigt
Övervägande molnigt
  Visa detaljer för Stockholm (Arlanda)
Avstånd från stationen: ONO 404kmESSB - Stockholm (Bromma)
Uppdaterad: 2024-02-26 18:50
 Vind från O
Vind: O 6 km/h
Temperatur: 3°C
Daggpunkt: 3°C
Luftfuktighet: 100%
Barometer: 1013 hPa
Moln: Genommulet
Sikt: 2 km
Molninformation: Genommulet 61 m
2024/02/26 17:50 ESSB 261750Z 09003KT 1800 VV002 03/03 Q1013
Genommulet
Genommulet
  Visa detaljer för Stockholm (Bromma)
Avstånd från stationen: ONO 323kmESKN - Stockholm (Skavsta)
Uppdaterad: 2024-02-26 18:50
 Vind från S
Vind: S 6 km/h
Temperatur: 2°C
Daggpunkt: 2°C
Luftfuktighet: 100%
Barometer: 1013 hPa
Summering: Dimmigt
Moln: Övervägande molnigt
Sikt: 5 km
Molninformation: Övervägande molnigt 122 m
2024/02/26 17:50 ESKN 261750Z 17003KT 5000 BR BKN004 02/02 Q1013
Dimmigt, Övervägande molnigt
Dimmigt
Övervägande molnigt
  Visa detaljer för Stockholm (Skavsta)
Avstånd från stationen: SSO 238kmESMS - Malmö flygplats (Sturup)
Uppdaterad: 2024-02-26 18:50
 Vind från N
Vind: N 7 km/h
Temperatur: 4°C
Vindavkylning: 2°C
Daggpunkt: 1°C
Luftfuktighet: 81%
Barometer: 1012 hPa
Summering: Klart
Sikt: mer än 10 km
2024/02/26 17:50 ESMS 261750Z 01004KT CAVOK 04/01 Q1012
Klart
Klart
  Visa detaljer för Malmö flygplats (Sturup)
Avstånd från stationen: O 382kmESSV - Visby flygplats
Uppdaterad: 2024-02-26 18:50
 Vind från NNV
Vind: NNV 13 km/h
Temperatur: 1°C
Vindavkylning: -3°C
Daggpunkt: 1°C
Luftfuktighet: 100%
Barometer: 1013 hPa
Summering: Dimma
Moln: Genommulet
Sikt: 0 km
Molninformation: Genommulet 61 m
2024/02/26 17:50 ESSV 261750Z 34007KT 0200 R03/0450N R21/0400N FG VV002 01/01 Q1013
Dimma, Genommulet
Dimma
Genommulet
  Visa detaljer för Visby flygplats
Avstånd från stationen: NNO 92kmESGT - Trollhättan
Uppdaterad: 2024-02-26 18:50
 Vind från varierande
Vind: varierande 6 km/h
Temperatur: 2°C
Daggpunkt: 1°C
Luftfuktighet: 93%
Barometer: 1015 hPa
Moln: Genommulet
Sikt: 10 km
Molninformation: Delvis molnigt 244 m
Övervägande molnigt 305 m
Genommulet 518 m
2024/02/26 17:50 ESGT 261750Z AUTO VRB03KT 9999 SCT008/// BKN010/// OVC017/// 02/01 Q1015
Genommulet
Genommulet
  Visa detaljer för Trollhättan
Avstånd från stationen: ONO 129kmESGJ - Jönköpings flygplats
Uppdaterad: 2024-02-26 18:50
 Vind från N
Vind: N 4 km/h
Temperatur: 2°C
Daggpunkt: 2°C
Luftfuktighet: 100%
Barometer: 1013 hPa
Moln: Övervägande molnigt
Sikt: 6 km
Molninformation: Övervägande molnigt 152 m
2024/02/26 17:50 ESGJ 261750Z 36002KT 6000 BKN005 02/02 Q1013
Övervägande molnigt
Övervägande molnigt
  Visa detaljer för Jönköpings flygplats
Avstånd från stationen: NNO 229kmESOK - Karlstad
Uppdaterad: 2024-02-26 18:50
 Vind från N
Vind: N 7 km/h
Temperatur: 1°C
Vindavkylning: -2°C
Daggpunkt: 0°C
Luftfuktighet: 93%
Barometer: 1014 hPa
Moln: Genommulet
Sikt: 10 km
Molninformation: Genommulet 274 m
2024/02/26 17:50 ESOK 261750Z AUTO 36004KT 320V020 9999 OVC009/// 01/00 Q1014
Genommulet
Genommulet
  Visa detaljer för Karlstad
Avstånd från stationen: N 643kmESNZ - Östersund (Frösön)
Uppdaterad: 2024-02-26 18:50
 Vind från NV
Vind: NV 7 km/h
Temperatur: -1°C
Vindavkylning: -4°C
Daggpunkt: -3°C
Luftfuktighet: 86%
Barometer: 1011 hPa
Moln: Några få moln
Sikt: 10 km
Molninformation: Några få moln 945 m
2024/02/26 17:50 ESNZ 261750Z 31004KT 9999 FEW031 M01/M03 Q1011
Några få moln
Några få moln
  Visa detaljer för Östersund (Frösön)
Avstånd från stationen: SSO 216kmEKCH - Köpenhamn (Kastrup)
Uppdaterad: 2024-02-26 18:50
 Vind från N
Vind: N 20 km/h
Temperatur: 5°C
Vindavkylning: 1°C
Daggpunkt: 2°C
Luftfuktighet: 81%
Barometer: 1014 hPa
Moln: Klart
Sikt: 10 km
2024/02/26 17:50 EKCH 261750Z AUTO 35011KT 9999 NCD 05/02 Q1014 TEMPO BKN004
Klart
Klart
  Visa detaljer för Köpenhamn (Kastrup)
Avstånd från stationen: SV 263kmEKBI - Billund Airport
Uppdaterad: 2024-02-26 18:50
 Vind från N
Vind: N 9 km/h
Temperatur: 2°C
Vindavkylning: -1°C
Daggpunkt: 0°C
Luftfuktighet: 87%
Barometer: 1015 hPa
Moln: Klart
Sikt: 10 km
2024/02/26 17:50 EKBI 261750Z AUTO 35005KT 9999 NCD 02/00 Q1015
Klart
Klart
  Visa detaljer för Billund Airport
Avstånd från stationen: N 302kmENGM - Oslo (Gardermoen)
Uppdaterad: 2024-02-26 18:50
 Vind från VNV
Vind: VNV 6 km/h
Temperatur: -2°C
Daggpunkt: -3°C
Luftfuktighet: 93%
Barometer: 1014 hPa
Moln: Några få moln
Sikt: 10 km
Molninformation: Några få moln 396 m
2024/02/26 17:50 ENGM 261750Z 30003KT 9999 FEW013 M02/M03 Q1014 NOSIG
Några få moln
Några få moln
  Visa detaljer för Oslo (Gardermoen)
Avstånd från stationen: NO 540kmEFMA - Mariehamn / Åland
Uppdaterad: 2024-02-26 18:50
 Vind från varierande
Vind: varierande 2 km/h
Temperatur: 0°C
Daggpunkt: 0°C
Luftfuktighet: 100%
Barometer: 1014 hPa
Summering: Freezing Fog
Moln: Genommulet
Sikt: 1 km
Molninformation: Genommulet 61 m
2024/02/26 17:50 EFMA 261750Z AUTO VRB01KT 0600 R21/0700N FZFG VV002 M00/M00 Q1014
Freezing fog, Genommulet
Freezing fog
Genommulet
  Visa detaljer för Mariehamn / Åland
Avstånd från stationen: S 558kmEDDT - Berlin (Tegel), Germany
Uppdaterad: 2020-11-09 07:50
Ej aktuell
 Vind från O
Vind: O 11 km/h
Temperatur: 6°C
Vindavkylning: 4°C
Daggpunkt: 5°C
Luftfuktighet: 93%
Barometer: 1027 hPa
Summering: Dimmigt
Moln: Genommulet
Sikt: 3 km
Molninformation: Genommulet 91 m
2020/11/09 06:50 EDDT 090650Z 09006KT 050V120 3000 BR OVC003 06/05 Q1027
Dimmigt, Genommulet
Dimmigt
Genommulet
  Visa detaljer för Berlin (Tegel), Germany
Avstånd från stationen: SV 737kmEHAM - Amsterdam (Schiphol)
Uppdaterad: 2024-02-26 18:25
 Vind från NNO
Vind: NNO 30 km/h
Temperatur: 5°C
Vindavkylning: 0°C
Daggpunkt: 2°C
Luftfuktighet: 81%
Barometer: 1011 hPa
Moln: Delvis molnigt
Sikt: 10 km
Molninformation: Delvis molnigt 488 m
2024/02/26 17:25 EHAM 261725Z 03016KT 350V060 9999 SCT016 05/02 Q1011 NOSIG
Delvis molnigt
Delvis molnigt
  Visa detaljer för Amsterdam (Schiphol)
Avstånd från stationen: ONO 808kmEFHK - Helsingfors (Vantaa)
Uppdaterad: 2024-02-26 18:50
 Vind från NNV
Vind: NNV 6 km/h
Temperatur: 0°C
Daggpunkt: 0°C
Luftfuktighet: 100%
Barometer: 1011 hPa
Summering: Light snow, Regn, Dimmigt
Moln: Genommulet
Sikt: 1 km
Molninformation: Genommulet 61 m
2024/02/26 17:50 EFHK 261750Z 33003KT 1400 R04L/P2000N R15/P2000N R22L/P2000N R22R/P2000N -SNRA BR OVC002 00/00 Q1011 NOSIG
Light snow, Regn, Dimmigt, Genommulet
Light snow
Regn
Dimmigt
Genommulet
  Visa detaljer för Helsingfors (Vantaa)
Avstånd från stationen: SSV 537kmEDDW - Bremen
Uppdaterad: 2024-02-26 18:50
 Vind från NNO
Vind: NNO 20 km/h
Temperatur: 5°C
Vindavkylning: 1°C
Daggpunkt: 3°C
Luftfuktighet: 87%
Barometer: 1011 hPa
Moln: Några få moln
Sikt: 10 km
Molninformation: Några få moln 244 m
2024/02/26 17:50 EDDW 261750Z AUTO 03011KT 9999 FEW008 05/03 Q1011 NOSIG
Några få moln
Några få moln
  Visa detaljer för Bremen
Avstånd från stationen: SSV 861kmEDDF - Frankfurt am Main
Uppdaterad: 2024-02-26 18:50
 Vind från NNO
Vind: NNO 17 km/h
Temperatur: 10°C
Vindavkylning: 8°C
Daggpunkt: 6°C
Luftfuktighet: 76%
Barometer: 1004 hPa
Summering: Klart
Sikt: mer än 10 km
2024/02/26 17:50 EDDF 261750Z AUTO 02009KT CAVOK 10/06 Q1004 NOSIG
Klart
Klart
  Visa detaljer för Frankfurt am Main
Avstånd från stationen: SV 880kmEBBR - Bryssel international
Uppdaterad: 2024-02-26 18:50
 Vind från NNO
Vind: NNO 28 km/h
Temperatur: 5°C
Vindavkylning: 1°C
Daggpunkt: 4°C
Luftfuktighet: 93%
Barometer: 1008 hPa
Summering: Lätt regn
Moln: Övervägande molnigt
Sikt: 10 km
Molninformation: Delvis molnigt 244 m
Delvis molnigt 305 m
Övervägande molnigt 579 m
2024/02/26 17:50 EBBR 261750Z 03015KT 9999 -RA SCT008 SCT010 BKN019 05/04 Q1008
Lätt regn, Övervägande molnigt
Lätt regn
Övervägande molnigt
  Visa detaljer för Bryssel international
Avstånd från stationen: SV 738kmEHAM - Amsterdam (Schiphol)
Uppdaterad: 2024-02-26 18:25
 Vind från NNO
Vind: NNO 30 km/h
Temperatur: 5°C
Vindavkylning: 0°C
Daggpunkt: 2°C
Luftfuktighet: 81%
Barometer: 1011 hPa
Moln: Delvis molnigt
Sikt: 10 km
Molninformation: Delvis molnigt 488 m
2024/02/26 17:25 EHAM 261725Z 03016KT 350V060 9999 SCT016 05/02 Q1011 NOSIG
Delvis molnigt
Delvis molnigt
  Visa detaljer för Amsterdam (Schiphol)
Avstånd från stationen: SV 1044kmEGLL - London (Heathrow)
Uppdaterad: 2024-02-26 18:50
 Vind från NNO
Vind: NNO 17 km/h
Temperatur: 7°C
Vindavkylning: 4°C
Daggpunkt: 0°C
Luftfuktighet: 61%
Barometer: 1016 hPa
Moln: Delvis molnigt
Sikt: 10 km
Molninformation: Delvis molnigt 1067 m
2024/02/26 17:50 EGLL 261750Z AUTO 02009KT 320V060 9999 SCT035 07/00 Q1016
Delvis molnigt
Delvis molnigt
  Visa detaljer för London (Heathrow)
Avstånd från stationen: SV 1132kmLFPG - Paris (Charles de Gaulle)
Uppdaterad: 2024-02-26 18:30
 Vind från NNO
Vind: NNO 43 km/h
Temperatur: 6°C
Vindavkylning: 1°C
Daggpunkt: 5°C
Luftfuktighet: 93%
Barometer: 1003 hPa
Summering: Lätt regn
Moln: Genommulet
Sikt: 7 km
Molninformation: Genommulet 274 m
2024/02/26 17:30 LFPG 261730Z 02023KT 7000 -RA OVC009 06/05 Q1003 NOSIG
Lätt regn, Genommulet
Lätt regn
Genommulet
  Visa detaljer för Paris (Charles de Gaulle)
Avstånd från stationen: SSV 1142kmLSZH - Zürich Airport
Uppdaterad: 2024-02-26 18:50
 Vind från varierande
Vind: varierande 6 km/h
Temperatur: 9°C
Daggpunkt: 2°C
Luftfuktighet: 62%
Barometer: 1001 hPa
Moln: Några få moln
Sikt: 10 km
Molninformation: Några få moln 2134 m
2024/02/26 17:50 LSZH 261750Z VRB03KT 9999 FEW070 09/02 Q1001 NOSIG
Några få moln
Några få moln
  Visa detaljer för Zürich Airport
Avstånd från stationen: S 1749kmLIRF - Rome Airport (Fiumicino - Leonardo da Vinci)
Uppdaterad: 2024-02-26 18:50
 Vind från OSO
Vind: OSO 31 km/h
Temperatur: 11°C
Daggpunkt: 9°C
Luftfuktighet: 88%
Barometer: 1005 hPa
Moln: Delvis molnigt
Sikt: 10 km
Molninformation: Delvis molnigt 610 m
Delvis molnigt 1067 m
2024/02/26 17:50 LIRF 261750Z 12017KT 9999 SCT020 SCT035 11/09 Q1005 NOSIG
Delvis molnigt
Delvis molnigt
  Visa detaljer för Rome Airport (Fiumicino - Leonardo da Vinci)
Avstånd från stationen: SO 2679kmLTAI - Antalya
Uppdaterad: 2024-02-26 18:20
 Vind från N
Vind: N 15 km/h
Temperatur: 12°C
Daggpunkt: 12°C
Luftfuktighet: 100%
Barometer: 1015 hPa
Summering: Lätt regn, Showers
Moln: Övervägande molnigt
Sikt: 10 km
Molninformation: Några få moln 610 m
Övervägande molnigt 762 m
2024/02/26 17:20 LTAI 261720Z 35008KT 9999 -SHRA FEW020CB BKN025 12/12 Q1015 NOSIG
Lätt regn, Showers, Övervägande molnigt
Lätt regn
Showers
Övervägande molnigt
  Visa detaljer för Antalya
Avstånd från stationen: VSV 6074kmKJFK - New Your (JFK)
Uppdaterad: 2024-02-26 18:51
 Vind från SSV
Vind: SSV 11 km/h
Temperatur: 7°C
Vindavkylning: 5°C
Daggpunkt: 1°C
Luftfuktighet: 66%
Barometer: 1017.6 hPa
Moln: Övervägande molnigt
Sikt: 16 km
Molninformation: Några få moln 1433 m
Övervägande molnigt 2743 m
2024/02/26 17:51 KJFK 261751Z 21006KT 10SM FEW047 BKN090 07/01 A3005 RMK AO2 RAE12 SLP176 P0000 60000 T00670011 10072 20011 56014
Övervägande molnigt
Övervägande molnigt
  Visa detaljer för New Your (JFK)
Avstånd från stationen: VSV 8848kmKLAX - Los Angeles International Airport
Uppdaterad: 2024-02-26 17:53
 Vind från S
Vind: S 6 km/h
Temperatur: 14°C
Daggpunkt: 11°C
Luftfuktighet: 82%
Barometer: 1017.9 hPa
Summering: Disigt
Moln: Genommulet
Sikt: 10 km
Molninformation: Några få moln 305 m
Övervägande molnigt 3658 m
Genommulet 4877 m
2024/02/26 16:53 KLAX 261653Z 19003KT 6SM HZ FEW010 BKN120 OVC160 14/11 A3006 RMK AO2 SLP178 T01390111 $
Disigt, Genommulet
Disigt
Genommulet
  Visa detaljer för Los Angeles International Airport
Avstånd från stationen: SO 4968kmOMDB - Dubai International Airport
Uppdaterad: 2024-02-26 18:00
 Vind från V
Vind: V 15 km/h
Temperatur: 22°C
Daggpunkt: 14°C
Luftfuktighet: 61%
Barometer: 1012 hPa
Moln: Delvis molnigt
Sikt: 10 km
Molninformation: Delvis molnigt 914 m
2024/02/26 17:00 OMDB 261700Z 26008KT 220V280 9999 SCT030 22/14 Q1012 NOSIG
Delvis molnigt
Delvis molnigt
  Visa detaljer för Dubai International Airport
Avstånd från stationen: OSO 8570kmRJTT - Tokyo International Airport
Uppdaterad: 2024-02-26 18:30
 Vind från VNV
Vind: VNV 31 km/h
Temperatur: 5°C
Vindavkylning: 0°C
Daggpunkt: -7°C
Luftfuktighet: 42%
Barometer: 1013 hPa
Summering: Klart
Sikt: mer än 10 km
2024/02/26 17:30 RJTT 261730Z 30017KT CAVOK 05/M07 Q1013 NOSIG RMK A2994
Klart
Klart
  Visa detaljer för Tokyo International Airport
Avstånd från stationen: OSO 7125kmZBAA - Peking (Beijing Capital)
Uppdaterad: 2024-02-26 18:30
 Vind från SSO
Vind: SSO 11 km/h
Temperatur: 0°C
Vindavkylning: -4°C
Daggpunkt: -9°C
Luftfuktighet: 51%
Barometer: 1031 hPa
Summering: Klart
Sikt: mer än 10 km
2024/02/26 17:30 ZBAA 261730Z 15003MPS CAVOK M00/M09 Q1031 NOSIG
Klart
Klart
  Visa detaljer för Peking (Beijing Capital)
VÄDER KURIOSA -  Weather TermsSevere Thunderstorm Warning - A severe thunderstorm is indicated by Doppler radar or sighted by skywarn spotters. A severe thunderstorm contains large damaging hail, 1 inch diameter or larger, and/or damaging winds of around 60 mph or greater. These warnings are issued on a county by county basis by the local Weather Forecast Office in Chicago/Romeoville.